TimeCST,TemperatureF,Dew PointF,Humidity,Sea Level PressureIn,VisibilityMPH,Wind Direction,Wind SpeedMPH,Gust SpeedMPH,PrecipitationIn,Events,Conditions,WindDirDegrees,DateUTC
12:15 AM,1.4,-5.8,72,30.23,10.0,North,4.6,-,N/A,,Clear,350,2014-01-08 06:15:00
12:55 AM,1.4,-7.6,66,30.24,10.0,North,4.6,-,N/A,,Clear,350,2014-01-08 06:55:00
1:15 AM,1.4,-7.6,66,30.24,10.0,Calm,Calm,-,N/A,,Clear,0,2014-01-08 07:15:00
1:35 AM,1.4,-5.8,72,30.25,10.0,NNW,5.8,-,N/A,,Scattered Clouds,340,2014-01-08 07:35:00
1:55 AM,1.4,-7.6,66,30.25,10.0,NNW,5.8,-,N/A,,Overcast,330,2014-01-08 07:55:00
2:15 AM,1.4,-7.6,66,30.26,10.0,NNW,5.8,-,N/A,,Overcast,340,2014-01-08 08:15:00
2:35 AM,1.4,-5.8,72,30.27,10.0,NNW,4.6,-,N/A,,Overcast,340,2014-01-08 08:35:00
2:55 AM,1.4,-5.8,72,30.28,10.0,North,5.8,-,N/A,,Overcast,360,2014-01-08 08:55:00
3:15 AM,1.4,-5.8,72,30.28,10.0,North,5.8,-,N/A,,Overcast,350,2014-01-08 09:15:00
3:35 AM,1.4,-5.8,72,30.28,10.0,North,5.8,-,N/A,,Overcast,350,2014-01-08 09:35:00
3:55 AM,1.4,-5.8,72,30.28,10.0,NNW,5.8,-,N/A,,Mostly Cloudy,340,2014-01-08 09:55:00
4:15 AM,1.4,-5.8,72,30.28,10.0,North,4.6,-,N/A,,Partly Cloudy,350,2014-01-08 10:15:00
4:35 AM,-0.4,-7.6,72,30.29,10.0,North,4.6,-,N/A,,Clear,350,2014-01-08 10:35:00
4:55 AM,-0.4,-7.6,72,30.29,10.0,NNE,4.6,-,N/A,,Clear,20,2014-01-08 10:55:00
5:15 AM,-0.4,-7.6,72,30.29,10.0,NNE,3.5,-,N/A,,Clear,30,2014-01-08 11:15:00
5:35 AM,-0.4,-7.6,72,30.30,10.0,North,3.5,-,N/A,,Clear,10,2014-01-08 11:35:00
5:55 AM,-0.4,-7.6,72,30.30,10.0,North,3.5,-,N/A,,Clear,10,2014-01-08 11:55:00
6:15 AM,-2.2,-9.4,71,30.30,10.0,NNE,5.8,-,N/A,,Clear,20,2014-01-08 12:15:00
6:35 AM,-0.4,-7.6,72,30.30,10.0,NNE,6.9,-,N/A,,Clear,20,2014-01-08 12:35:00
6:55 AM,-2.2,-9.4,71,30.30,10.0,NNE,8.1,-,N/A,,Clear,20,2014-01-08 12:55:00
7:15 AM,-2.2,-9.4,71,30.31,10.0,NNE,9.2,-,N/A,,Clear,20,2014-01-08 13:15:00
7:35 AM,-2.2,-9.4,71,30.33,10.0,NNE,5.8,-,N/A,,Clear,20,2014-01-08 13:35:00
7:55 AM,-4.0,-9.4,78,30.34,10.0,North,3.5,-,N/A,,Clear,360,2014-01-08 13:55:00
8:15 AM,-4.0,-11.2,71,30.35,10.0,North,3.5,-,N/A,,Clear,360,2014-01-08 14:15:00
8:35 AM,-4.0,-9.4,78,30.36,10.0,Calm,Calm,-,N/A,,Clear,0,2014-01-08 14:35:00
8:55 AM,-2.2,-9.4,71,30.37,10.0,North,4.6,-,N/A,,Clear,10,2014-01-08 14:55:00
9:15 AM,-2.2,-9.4,71,30.38,10.0,NNE,5.8,-,N/A,,Clear,20,2014-01-08 15:15:00
9:35 AM,-0.4,-9.4,66,30.39,10.0,NNE,4.6,-,N/A,,Clear,20,2014-01-08 15:35:00
9:55 AM,1.4,-7.6,66,30.39,10.0,North,5.8,-,N/A,,Clear,10,2014-01-08 15:55:00
10:15 AM,1.4,-5.8,72,30.40,10.0,NNE,5.8,-,N/A,,Clear,30,2014-01-08 16:15:00
10:35 AM,3.2,-5.8,66,30.41,9.0,North,4.6,-,N/A,,Clear,360,2014-01-08 16:35:00
10:55 AM,3.2,-5.8,66,30.41,10.0,NNW,5.8,-,N/A,,Clear,340,2014-01-08 16:55:00
11:15 AM,3.2,-5.8,66,30.41,10.0,North,5.8,-,N/A,,Clear,360,2014-01-08 17:15:00
11:35 AM,5.0,-4.0,66,30.41,10.0,NNE,4.6,-,N/A,,Clear,30,2014-01-08 17:35:00
11:55 AM,5.0,-4.0,66,30.40,10.0,North,4.6,-,N/A,,Clear,10,2014-01-08 17:55:00
12:15 PM,5.0,-4.0,66,30.39,10.0,Variable,5.8,-,N/A,,Clear,0,2014-01-08 18:15:00
12:35 PM,6.8,-2.2,67,30.39,10.0,North,6.9,-,N/A,,Scattered Clouds,360,2014-01-08 18:35:00
12:55 PM,6.8,-2.2,67,30.38,10.0,North,6.9,-,N/A,,Scattered Clouds,10,2014-01-08 18:55:00
1:15 PM,8.6,-0.4,67,30.38,9.0,North,8.1,-,N/A,,Mostly Cloudy,360,2014-01-08 19:15:00
1:35 PM,8.6,-0.4,67,30.38,10.0,North,6.9,-,N/A,,Mostly Cloudy,360,2014-01-08 19:35:00
1:55 PM,8.6,-0.4,67,30.38,10.0,North,6.9,-,N/A,,Mostly Cloudy,360,2014-01-08 19:55:00
2:15 PM,8.6,-2.2,62,30.38,10.0,NNE,4.6,-,N/A,,Mostly Cloudy,30,2014-01-08 20:15:00
2:35 PM,8.6,-0.4,67,30.38,10.0,North,5.8,-,N/A,,Mostly Cloudy,10,2014-01-08 20:35:00
2:55 PM,8.6,-0.4,67,30.38,10.0,Calm,Calm,-,N/A,,Mostly Cloudy,0,2014-01-08 20:55:00
3:15 PM,8.6,-0.4,67,30.39,10.0,North,4.6,-,N/A,,Mostly Cloudy,350,2014-01-08 21:15:00
3:35 PM,8.6,-0.4,67,30.39,10.0,NE,4.6,-,N/A,,Mostly Cloudy,50,2014-01-08 21:35:00
3:55 PM,8.6,-0.4,67,30.40,10.0,NE,5.8,-,N/A,,Mostly Cloudy,50,2014-01-08 21:55:00
4:15 PM,8.6,-0.4,67,30.39,10.0,NNE,6.9,-,N/A,,Scattered Clouds,30,2014-01-08 22:15:00
4:35 PM,6.8,-2.2,67,30.39,10.0,NNE,5.8,-,N/A,,Partly Cloudy,30,2014-01-08 22:35:00
4:55 PM,6.8,-0.4,72,30.40,10.0,NNE,6.9,-,N/A,,Clear,30,2014-01-08 22:55:00
5:15 PM,5.0,-2.2,72,30.39,10.0,NNE,6.9,-,N/A,,Clear,30,2014-01-08 23:15:00
5:35 PM,5.0,-2.2,72,30.39,10.0,NE,8.1,-,N/A,,Clear,40,2014-01-08 23:35:00
5:55 PM,3.2,-4.0,72,30.39,10.0,NE,4.6,-,N/A,,Clear,50,2014-01-08 23:55:00
6:15 PM,3.2,-4.0,72,30.40,10.0,ENE,3.5,-,N/A,,Clear,60,2014-01-09 00:15:00
6:35 PM,3.2,-4.0,72,30.39,10.0,East,5.8,-,N/A,,Clear,90,2014-01-09 00:35:00
6:55 PM,3.2,-4.0,72,30.40,10.0,East,6.9,-,N/A,,Clear,80,2014-01-09 00:55:00
7:15 PM,3.2,-4.0,72,30.40,10.0,East,5.8,-,N/A,,Clear,80,2014-01-09 01:15:00
7:35 PM,1.4,-5.8,72,30.40,10.0,ENE,4.6,-,N/A,,Clear,70,2014-01-09 01:35:00
7:55 PM,1.4,-5.8,72,30.40,10.0,East,5.8,-,N/A,,Clear,80,2014-01-09 01:55:00
8:15 PM,1.4,-5.8,72,30.40,10.0,ESE,5.8,-,N/A,,Clear,110,2014-01-09 02:15:00
8:35 PM,1.4,-5.8,72,30.39,10.0,East,5.8,-,N/A,,Clear,90,2014-01-09 02:35:00
8:55 PM,1.4,-5.8,72,30.40,10.0,Calm,Calm,-,N/A,,Mostly Cloudy,0,2014-01-09 02:55:00
9:15 PM,1.4,-5.8,72,30.40,10.0,ESE,5.8,-,N/A,,Partly Cloudy,120,2014-01-09 03:15:00
9:35 PM,1.4,-5.8,72,30.40,10.0,SE,4.6,-,N/A,,Clear,130,2014-01-09 03:35:00
9:55 PM,1.4,-5.8,72,30.39,10.0,ESE,5.8,-,N/A,,Clear,120,2014-01-09 03:55:00
10:15 PM,1.4,-5.8,72,30.39,10.0,SE,8.1,-,N/A,,Clear,130,2014-01-09 04:15:00
10:35 PM,-0.4,-5.8,78,30.38,10.0,SE,6.9,-,N/A,,Clear,130,2014-01-09 04:35:00
10:55 PM,1.4,-5.8,72,30.38,10.0,SE,8.1,-,N/A,,Clear,140,2014-01-09 04:55:00
11:15 PM,1.4,-5.8,72,30.37,10.0,SE,8.1,-,N/A,,Clear,130,2014-01-09 05:15:00
11:35 PM,1.4,-5.8,72,30.37,10.0,SE,8.1,-,N/A,,Clear,140,2014-01-09 05:35:00
11:55 PM,1.4,-5.8,72,30.36,10.0,SE,8.1,-,N/A,,Partly Cloudy,130,2014-01-09 05:55:00